AVA8507 SKSM-SKBO
Flight info
| Callsign | AVA8507 |
|---|---|
| Flight time | 1h 0m |
| Altitude | 35000 |
| Route | SUPLI1A LOKOV UG444 EJA UQ119 ILSEV ILSEV5E |
| Aircraft | A320/M-SDE3FGHIRWY/LB1 |
Departure
| Time | 2026-05-05 22:44 |
|---|---|
| Airport | Simón Bolívar International Airport (SKSM) |
Arrival
| Time | 2026-05-05 23:44 |
|---|---|
| Airport | El Dorado International Airport (SKBO) |
| Time | Latitude | Longitude | Altitude | Speed | Heading |
|---|---|---|---|---|---|
| 2026-05-05 22:20 | 11.11741 | -74.23215 | 39 ft | 0 kts | 270° |
| 2026-05-05 22:36 | 11.11741 | -74.23197 | 39 ft | 3 kts | 275° |
| 2026-05-05 22:37 | 11.11739 | -74.23182 | 38 ft | 3 kts | 292° |
| 2026-05-05 22:37 | 11.11728 | -74.23165 | 38 ft | 3 kts | 333° |
| 2026-05-05 22:37 | 11.11713 | -74.23161 | 38 ft | 1 kts | 357° |
| 2026-05-05 22:37 | 11.11710 | -74.23160 | 38 ft | 0 kts | 357° |
| 2026-05-05 22:40 | 11.11715 | -74.23161 | 38 ft | 4 kts | 357° |
| 2026-05-05 22:40 | 11.11744 | -74.23131 | 36 ft | 7 kts | 79° |
| 2026-05-05 22:41 | 11.11742 | -74.23065 | 32 ft | 11 kts | 110° |
| 2026-05-05 22:41 | 11.11673 | -74.23054 | 33 ft | 13 kts | 181° |
| 2026-05-05 22:41 | 11.11554 | -74.23054 | 33 ft | 19 kts | 178° |
| 2026-05-05 22:41 | 11.11427 | -74.23051 | 34 ft | 17 kts | 178° |
| 2026-05-05 22:42 | 11.11312 | -74.23047 | 34 ft | 12 kts | 176° |
| 2026-05-05 22:42 | 11.11239 | -74.23024 | 34 ft | 10 kts | 161° |
| 2026-05-05 22:42 | 11.11229 | -74.23043 | 34 ft | 3 kts | 311° |
| 2026-05-05 22:42 | 11.11246 | -74.23047 | 34 ft | 2 kts | 355° |
| 2026-05-05 22:43 | 11.11249 | -74.23047 | 34 ft | 0 kts | 357° |
| 2026-05-05 22:43 | 11.11572 | -74.23054 | 33 ft | 89 kts | 359° |
| 2026-05-05 22:43 | 11.12427 | -74.23073 | 71 ft | 150 kts | 358° |
| 2026-05-05 22:44 | 11.13481 | -74.23140 | 747 ft | 156 kts | 347° |
| 2026-05-05 22:44 | 11.14419 | -74.23759 | 1305 ft | 176 kts | 309° |
| 2026-05-05 22:44 | 11.14780 | -74.25013 | 1768 ft | 199 kts | 266° |
| 2026-05-05 22:44 | 11.14158 | -74.26281 | 2403 ft | 209 kts | 220° |
| 2026-05-05 22:45 | 11.12899 | -74.27007 | 3120 ft | 208 kts | 202° |
| 2026-05-05 22:45 | 11.11558 | -74.27556 | 3846 ft | 208 kts | 198° |
| 2026-05-05 22:45 | 11.10201 | -74.28067 | 4565 ft | 208 kts | 198° |
| 2026-05-05 22:45 | 11.08841 | -74.28578 | 5255 ft | 209 kts | 198° |
| 2026-05-05 22:46 | 11.07474 | -74.29103 | 5939 ft | 210 kts | 198° |
| 2026-05-05 22:46 | 11.06100 | -74.29638 | 6623 ft | 212 kts | 198° |
| 2026-05-05 22:46 | 11.04720 | -74.30183 | 7274 ft | 213 kts | 199° |
| 2026-05-05 22:46 | 11.03332 | -74.30734 | 7889 ft | 216 kts | 199° |
| 2026-05-05 22:47 | 11.01927 | -74.31295 | 8504 ft | 218 kts | 199° |
| 2026-05-05 22:47 | 11.00512 | -74.31864 | 9115 ft | 220 kts | 199° |
| 2026-05-05 22:47 | 10.99082 | -74.32443 | 9710 ft | 222 kts | 200° |
| 2026-05-05 22:47 | 10.97640 | -74.33025 | 10300 ft | 224 kts | 199° |
| 2026-05-05 22:48 | 10.96148 | -74.33457 | 10875 ft | 223 kts | 183° |
| 2026-05-05 22:48 | 10.94549 | -74.33384 | 11151 ft | 242 kts | 169° |
| 2026-05-05 22:48 | 10.92828 | -74.33102 | 11429 ft | 266 kts | 169° |
| 2026-05-05 22:48 | 10.90917 | -74.32790 | 11727 ft | 290 kts | 169° |
| 2026-05-05 22:49 | 10.88845 | -74.32461 | 12010 ft | 314 kts | 170° |
| 2026-05-05 22:49 | 10.86609 | -74.32110 | 12247 ft | 337 kts | 170° |
| 2026-05-05 22:49 | 10.84218 | -74.31736 | 12485 ft | 357 kts | 170° |
| 2026-05-05 22:49 | 10.81727 | -74.31349 | 13052 ft | 366 kts | 170° |
| 2026-05-05 22:50 | 10.79195 | -74.30959 | 13724 ft | 370 kts | 170° |
| 2026-05-05 22:50 | 10.76636 | -74.30566 | 14417 ft | 374 kts | 170° |
| 2026-05-05 22:50 | 10.74054 | -74.30168 | 15099 ft | 377 kts | 170° |
| 2026-05-05 22:50 | 10.71449 | -74.29766 | 15748 ft | 381 kts | 170° |
| 2026-05-05 22:51 | 10.68817 | -74.29360 | 16395 ft | 384 kts | 170° |
| 2026-05-05 22:51 | 10.66163 | -74.28950 | 17022 ft | 388 kts | 170° |
| 2026-05-05 22:51 | 10.63485 | -74.28536 | 17642 ft | 391 kts | 170° |
| 2026-05-05 22:51 | 10.60785 | -74.28117 | 18249 ft | 394 kts | 170° |
| 2026-05-05 22:52 | 10.58061 | -74.27694 | 18840 ft | 398 kts | 170° |
| 2026-05-05 22:52 | 10.55309 | -74.27266 | 19384 ft | 402 kts | 170° |
| 2026-05-05 22:52 | 10.52527 | -74.26834 | 19917 ft | 407 kts | 170° |
| 2026-05-05 22:52 | 10.49713 | -74.26396 | 20442 ft | 411 kts | 170° |
| 2026-05-05 22:53 | 10.46871 | -74.25950 | 20949 ft | 415 kts | 170° |
| 2026-05-05 22:53 | 10.43998 | -74.25505 | 21432 ft | 420 kts | 171° |
| 2026-05-05 22:53 | 10.41098 | -74.25059 | 21897 ft | 424 kts | 171° |
| 2026-05-05 22:53 | 10.38171 | -74.24609 | 22348 ft | 428 kts | 171° |
| 2026-05-05 22:54 | 10.35216 | -74.24150 | 22777 ft | 432 kts | 171° |
| 2026-05-05 22:54 | 10.32236 | -74.23687 | 23204 ft | 435 kts | 171° |
| 2026-05-05 22:54 | 10.29231 | -74.23223 | 23612 ft | 439 kts | 171° |
| 2026-05-05 22:54 | 10.26201 | -74.22759 | 24025 ft | 442 kts | 171° |
| 2026-05-05 22:55 | 10.23153 | -74.22291 | 24408 ft | 445 kts | 171° |
| 2026-05-05 22:55 | 10.20083 | -74.21817 | 24781 ft | 447 kts | 171° |
| 2026-05-05 22:55 | 10.16997 | -74.21340 | 25155 ft | 450 kts | 171° |
| 2026-05-05 22:55 | 10.13894 | -74.20858 | 25519 ft | 452 kts | 171° |
| 2026-05-05 22:56 | 10.10780 | -74.20372 | 25872 ft | 454 kts | 171° |
| 2026-05-05 22:56 | 10.07648 | -74.19884 | 26218 ft | 457 kts | 171° |
| 2026-05-05 22:56 | 10.04498 | -74.19396 | 26552 ft | 459 kts | 171° |
| 2026-05-05 22:56 | 10.01333 | -74.18907 | 26885 ft | 461 kts | 171° |
| 2026-05-05 22:57 | 9.98156 | -74.18419 | 27185 ft | 463 kts | 171° |
| 2026-05-05 22:57 | 9.94960 | -74.17927 | 27487 ft | 465 kts | 171° |
| 2026-05-05 22:57 | 9.91753 | -74.17435 | 27782 ft | 467 kts | 171° |
| 2026-05-05 22:57 | 9.88529 | -74.16940 | 28071 ft | 469 kts | 171° |
| 2026-05-05 22:58 | 9.85294 | -74.16442 | 28345 ft | 471 kts | 171° |
| 2026-05-05 22:58 | 9.82047 | -74.15939 | 28605 ft | 473 kts | 171° |
| 2026-05-05 22:58 | 9.78786 | -74.15433 | 28861 ft | 475 kts | 171° |
| 2026-05-05 22:58 | 9.75518 | -74.14927 | 29106 ft | 476 kts | 171° |
| 2026-05-05 22:59 | 9.72233 | -74.14417 | 29352 ft | 478 kts | 171° |
| 2026-05-05 22:59 | 9.68939 | -74.13907 | 29581 ft | 480 kts | 171° |
| 2026-05-05 22:59 | 9.65635 | -74.13396 | 29794 ft | 481 kts | 171° |
| 2026-05-05 22:59 | 9.62318 | -74.12884 | 29998 ft | 482 kts | 171° |
| 2026-05-05 23:00 | 9.55679 | -74.11863 | 30481 ft | 482 kts | 172° |
| 2026-05-05 23:00 | 9.52364 | -74.11355 | 30764 ft | 481 kts | 172° |
| 2026-05-05 23:00 | 9.49059 | -74.10848 | 31045 ft | 480 kts | 172° |
| 2026-05-05 23:01 | 9.45759 | -74.10337 | 31319 ft | 479 kts | 172° |
| 2026-05-05 23:01 | 9.42463 | -74.09828 | 31597 ft | 479 kts | 172° |
| 2026-05-05 23:01 | 9.39174 | -74.09324 | 31871 ft | 478 kts | 172° |
| 2026-05-05 23:01 | 9.35887 | -74.08819 | 32149 ft | 477 kts | 172° |
| 2026-05-05 23:02 | 9.32606 | -74.08316 | 32428 ft | 477 kts | 172° |
| 2026-05-05 23:02 | 9.29331 | -74.07813 | 32705 ft | 475 kts | 172° |
| 2026-05-05 23:02 | 9.26062 | -74.07313 | 32996 ft | 475 kts | 172° |
| 2026-05-05 23:02 | 9.22798 | -74.06812 | 33285 ft | 474 kts | 172° |
| 2026-05-05 23:03 | 9.19538 | -74.06312 | 33574 ft | 474 kts | 172° |
| 2026-05-05 23:03 | 9.16282 | -74.05812 | 33867 ft | 473 kts | 172° |
| 2026-05-05 23:03 | 9.13035 | -74.05314 | 34170 ft | 472 kts | 172° |
| 2026-05-05 23:03 | 9.09791 | -74.04816 | 34471 ft | 471 kts | 172° |
| 2026-05-05 23:04 | 9.06550 | -74.04319 | 34744 ft | 471 kts | 172° |
| 2026-05-05 23:04 | 9.03313 | -74.03824 | 34831 ft | 470 kts | 172° |
| 2026-05-05 23:04 | 8.96900 | -74.02840 | 34840 ft | 468 kts | 172° |
| 2026-05-05 23:05 | 8.90453 | -74.01848 | 34841 ft | 469 kts | 171° |
| 2026-05-05 23:05 | 8.84002 | -74.00861 | 34850 ft | 469 kts | 171° |
| 2026-05-05 23:06 | 8.77549 | -73.99870 | 34852 ft | 469 kts | 171° |
| 2026-05-05 23:06 | 8.71094 | -73.98873 | 34860 ft | 469 kts | 171° |
| 2026-05-05 23:07 | 8.64643 | -73.97879 | 34868 ft | 469 kts | 171° |
| 2026-05-05 23:07 | 8.58193 | -73.96891 | 34874 ft | 469 kts | 171° |
| 2026-05-05 23:08 | 8.51738 | -73.95900 | 34880 ft | 469 kts | 171° |
| 2026-05-05 23:08 | 8.45280 | -73.94918 | 34883 ft | 469 kts | 171° |
| 2026-05-05 23:09 | 8.38818 | -73.93931 | 34886 ft | 470 kts | 171° |
| 2026-05-05 23:09 | 8.32350 | -73.92937 | 34889 ft | 470 kts | 171° |
| 2026-05-05 23:10 | 8.25878 | -73.91947 | 34892 ft | 470 kts | 171° |
| 2026-05-05 23:10 | 8.19405 | -73.90963 | 34894 ft | 471 kts | 171° |
| 2026-05-05 23:11 | 8.12928 | -73.89973 | 34893 ft | 471 kts | 171° |
| 2026-05-05 23:11 | 8.06452 | -73.88977 | 34896 ft | 470 kts | 171° |
| 2026-05-05 23:12 | 7.99958 | -73.88154 | 34893 ft | 471 kts | 174° |
| 2026-05-05 23:12 | 7.93424 | -73.87686 | 34886 ft | 470 kts | 176° |
| 2026-05-05 23:13 | 7.86887 | -73.87276 | 34885 ft | 471 kts | 175° |
| 2026-05-05 23:13 | 7.80398 | -73.86792 | 34887 ft | 471 kts | 175° |
| 2026-05-05 23:14 | 7.73821 | -73.86246 | 34887 ft | 471 kts | 175° |
| 2026-05-05 23:14 | 7.67291 | -73.85700 | 34885 ft | 471 kts | 175° |
| 2026-05-05 23:15 | 7.60802 | -73.85179 | 34880 ft | 471 kts | 175° |
| 2026-05-05 23:15 | 7.54268 | -73.84669 | 34876 ft | 471 kts | 175° |
| 2026-05-05 23:16 | 7.47731 | -73.84149 | 34869 ft | 471 kts | 175° |
| 2026-05-05 23:16 | 7.41191 | -73.83622 | 34859 ft | 471 kts | 175° |
| 2026-05-05 23:17 | 7.34648 | -73.83100 | 34851 ft | 472 kts | 175° |
| 2026-05-05 23:17 | 7.28106 | -73.82579 | 34845 ft | 472 kts | 175° |
| 2026-05-05 23:18 | 7.21568 | -73.82056 | 34834 ft | 471 kts | 175° |
| 2026-05-05 23:18 | 7.15030 | -73.81531 | 34813 ft | 472 kts | 175° |
| 2026-05-05 23:19 | 7.08482 | -73.81002 | 34821 ft | 472 kts | 175° |
| 2026-05-05 23:19 | 7.01929 | -73.80806 | 34817 ft | 472 kts | 186° |
| 2026-05-05 23:20 | 6.95460 | -73.81940 | 34809 ft | 472 kts | 191° |
| 2026-05-05 23:20 | 6.88996 | -73.83163 | 34806 ft | 473 kts | 190° |
| 2026-05-05 23:21 | 6.82525 | -73.84372 | 34804 ft | 473 kts | 190° |
| 2026-05-05 23:21 | 6.76052 | -73.85579 | 34808 ft | 473 kts | 190° |
| 2026-05-05 23:22 | 6.70667 | -73.86582 | 34814 ft | 473 kts | 190° |
| 2026-05-05 23:22 | 6.64183 | -73.87794 | 34817 ft | 474 kts | 190° |
| 2026-05-05 23:23 | 6.56648 | -73.89212 | 34833 ft | 474 kts | 191° |
| 2026-05-05 23:23 | 6.50164 | -73.90425 | 34840 ft | 474 kts | 190° |
| 2026-05-05 23:24 | 6.44729 | -73.91436 | 34845 ft | 474 kts | 190° |
| 2026-05-05 23:24 | 6.38235 | -73.92647 | 34859 ft | 475 kts | 190° |
| 2026-05-05 23:25 | 6.31734 | -73.93861 | 34858 ft | 476 kts | 190° |
| 2026-05-05 23:25 | 6.25224 | -73.95081 | 34849 ft | 476 kts | 190° |
| 2026-05-05 23:26 | 6.18716 | -73.96298 | 34846 ft | 476 kts | 191° |
| 2026-05-05 23:26 | 6.12202 | -73.97521 | 34893 ft | 476 kts | 190° |
| 2026-05-05 23:27 | 6.05680 | -73.98735 | 34926 ft | 477 kts | 190° |
| 2026-05-05 23:27 | 5.99158 | -73.99952 | 34931 ft | 476 kts | 190° |
| 2026-05-05 23:28 | 5.92688 | -74.01177 | 34942 ft | 476 kts | 191° |
| 2026-05-05 23:28 | 5.86182 | -74.02421 | 34949 ft | 476 kts | 191° |
| 2026-05-05 23:29 | 5.79647 | -74.03663 | 34084 ft | 474 kts | 191° |
| 2026-05-05 23:29 | 5.76397 | -74.04278 | 33055 ft | 478 kts | 190° |
| 2026-05-05 23:29 | 5.73163 | -74.04891 | 32023 ft | 480 kts | 190° |
| 2026-05-05 23:30 | 5.69874 | -74.05517 | 30982 ft | 482 kts | 190° |
| 2026-05-05 23:30 | 5.66579 | -74.06146 | 29819 ft | 482 kts | 190° |
| 2026-05-05 23:30 | 5.63251 | -74.06777 | 28235 ft | 492 kts | 190° |
| 2026-05-05 23:30 | 5.59886 | -74.07412 | 27004 ft | 491 kts | 190° |
| 2026-05-05 23:31 | 5.56533 | -74.08044 | 25795 ft | 489 kts | 190° |
| 2026-05-05 23:31 | 5.53200 | -74.08676 | 24740 ft | 485 kts | 190° |
| 2026-05-05 23:31 | 5.49914 | -74.09301 | 24020 ft | 474 kts | 190° |
| 2026-05-05 23:31 | 5.46745 | -74.09905 | 23873 ft | 453 kts | 190° |
| 2026-05-05 23:32 | 5.43778 | -74.10733 | 23746 ft | 434 kts | 202° |
| 2026-05-05 23:32 | 5.41174 | -74.12142 | 23615 ft | 418 kts | 215° |
| 2026-05-05 23:32 | 5.39018 | -74.14017 | 23432 ft | 405 kts | 227° |
| 2026-05-05 23:32 | 5.37154 | -74.16101 | 23013 ft | 399 kts | 228° |
| 2026-05-05 23:33 | 5.35321 | -74.18174 | 22516 ft | 395 kts | 228° |
| 2026-05-05 23:33 | 5.33505 | -74.20238 | 22001 ft | 393 kts | 228° |
| 2026-05-05 23:33 | 5.31703 | -74.22288 | 21483 ft | 390 kts | 227° |
| 2026-05-05 23:33 | 5.29715 | -74.24107 | 20997 ft | 385 kts | 212° |
| 2026-05-05 23:34 | 5.27357 | -74.25341 | 20493 ft | 381 kts | 203° |
| 2026-05-05 23:34 | 5.24950 | -74.26436 | 19998 ft | 379 kts | 202° |
| 2026-05-05 23:34 | 5.22556 | -74.27511 | 19511 ft | 376 kts | 202° |
| 2026-05-05 23:34 | 5.20179 | -74.28574 | 19035 ft | 373 kts | 202° |
| 2026-05-05 23:35 | 5.17819 | -74.29630 | 18656 ft | 368 kts | 202° |
| 2026-05-05 23:35 | 5.15525 | -74.30664 | 18528 ft | 355 kts | 202° |
| 2026-05-05 23:35 | 5.13304 | -74.31665 | 18324 ft | 346 kts | 202° |
| 2026-05-05 23:35 | 5.11121 | -74.32648 | 17996 ft | 342 kts | 201° |
| 2026-05-05 23:36 | 5.08958 | -74.33618 | 17626 ft | 339 kts | 201° |
| 2026-05-05 23:36 | 5.06805 | -74.34581 | 17259 ft | 338 kts | 202° |
| 2026-05-05 23:36 | 5.04671 | -74.35540 | 16895 ft | 335 kts | 202° |
| 2026-05-05 23:36 | 5.02553 | -74.36494 | 16523 ft | 333 kts | 202° |
| 2026-05-05 23:37 | 5.00448 | -74.37441 | 16115 ft | 329 kts | 202° |
| 2026-05-05 23:37 | 4.98375 | -74.38374 | 15428 ft | 325 kts | 202° |
| 2026-05-05 23:37 | 4.96321 | -74.39296 | 14729 ft | 322 kts | 202° |
| 2026-05-05 23:37 | 4.94340 | -74.40172 | 14529 ft | 301 kts | 198° |
| 2026-05-05 23:38 | 4.92342 | -74.40584 | 14335 ft | 289 kts | 179° |
| 2026-05-05 23:38 | 4.90389 | -74.40358 | 14124 ft | 279 kts | 162° |
| 2026-05-05 23:38 | 4.88649 | -74.39575 | 13850 ft | 272 kts | 145° |
| 2026-05-05 23:38 | 4.87246 | -74.38312 | 13530 ft | 270 kts | 128° |
| 2026-05-05 23:39 | 4.86116 | -74.36828 | 13161 ft | 270 kts | 126° |
| 2026-05-05 23:39 | 4.84988 | -74.35333 | 12810 ft | 269 kts | 126° |
| 2026-05-05 23:39 | 4.83863 | -74.33845 | 12445 ft | 264 kts | 126° |
| 2026-05-05 23:39 | 4.82764 | -74.32393 | 12107 ft | 252 kts | 127° |
| 2026-05-05 23:40 | 4.81726 | -74.31022 | 11780 ft | 242 kts | 126° |
| 2026-05-05 23:40 | 4.80728 | -74.29702 | 11467 ft | 234 kts | 126° |
| 2026-05-05 23:40 | 4.79776 | -74.28442 | 11187 ft | 219 kts | 126° |
| 2026-05-05 23:40 | 4.78897 | -74.27281 | 10879 ft | 204 kts | 127° |
| 2026-05-05 23:41 | 4.78075 | -74.26198 | 10628 ft | 187 kts | 127° |
| 2026-05-05 23:41 | 4.77335 | -74.25220 | 10397 ft | 167 kts | 127° |
| 2026-05-05 23:41 | 4.76657 | -74.24325 | 10180 ft | 156 kts | 127° |
| 2026-05-05 23:41 | 4.76011 | -74.23472 | 9975 ft | 152 kts | 127° |
| 2026-05-05 23:42 | 4.75379 | -74.22634 | 9770 ft | 150 kts | 127° |
| 2026-05-05 23:42 | 4.74752 | -74.21807 | 9569 ft | 148 kts | 127° |
| 2026-05-05 23:42 | 4.74125 | -74.20986 | 9377 ft | 148 kts | 127° |
| 2026-05-05 23:42 | 4.73506 | -74.20166 | 9184 ft | 147 kts | 127° |
| 2026-05-05 23:43 | 4.72885 | -74.19346 | 8977 ft | 147 kts | 127° |
| 2026-05-05 23:43 | 4.72273 | -74.18527 | 8792 ft | 147 kts | 127° |
| 2026-05-05 23:43 | 4.71650 | -74.17699 | 8594 ft | 146 kts | 128° |
| 2026-05-05 23:43 | 4.71030 | -74.16889 | 8432 ft | 146 kts | 127° |
| 2026-05-05 23:44 | 4.70448 | -74.16114 | 8374 ft | 122 kts | 127° |
| 2026-05-05 23:44 | 4.70044 | -74.15580 | 8373 ft | 71 kts | 127° |
| 2026-05-05 23:44 | 4.69814 | -74.15276 | 8373 ft | 35 kts | 127° |
| 2026-05-05 23:44 | 4.69726 | -74.15070 | 8371 ft | 30 kts | 101° |
| 2026-05-05 23:45 | 4.69710 | -74.14910 | 8373 ft | 18 kts | 93° |
| 2026-05-05 23:45 | 4.69767 | -74.14806 | 8373 ft | 18 kts | 37° |
| 2026-05-05 23:45 | 4.69804 | -74.14780 | 8373 ft | 0 kts | 35° |
| 2026-05-05 23:46 | 4.69811 | -74.14775 | 8373 ft | 6 kts | 34° |
| 2026-05-05 23:46 | 4.69851 | -74.14710 | 8371 ft | 15 kts | 109° |
| 2026-05-05 23:46 | 4.69782 | -74.14621 | 8370 ft | 16 kts | 125° |
| 2026-05-05 23:46 | 4.69792 | -74.14575 | 8373 ft | 7 kts | 36° |
| 2026-05-05 23:47 | 4.69808 | -74.14563 | 8373 ft | 0 kts | 37° |